createdAt,value
2017-09-04T03:01:16.035Z,90.10
2017-09-04T03:03:44.498Z,90.10
2017-09-04T03:06:12.485Z,90.20
2017-09-04T03:08:40.849Z,90.20
2017-09-04T03:11:09.191Z,90.30
2017-09-04T03:13:37.542Z,90.20
2017-09-04T03:16:05.902Z,90.10
2017-09-04T03:18:34.254Z,90.10
2017-09-04T03:21:02.596Z,90.00
2017-09-04T03:23:30.953Z,90.00
2017-09-04T03:25:58.618Z,90.00
2017-09-04T03:28:26.267Z,89.90
2017-09-04T03:30:54.450Z,89.90
2017-09-04T03:33:22.433Z,89.80
2017-09-04T03:35:50.429Z,90.00
2017-09-04T03:38:18.106Z,90.00
2017-09-04T03:40:45.585Z,90.30
2017-09-04T03:43:13.054Z,90.30
2017-09-04T03:45:40.879Z,90.40
2017-09-04T03:48:08.694Z,90.50
2017-09-04T03:50:36.857Z,90.50
2017-09-04T03:53:04.337Z,90.50
2017-09-04T03:55:32.139Z,90.60
2017-09-04T03:58:00.377Z,90.60
2017-09-04T04:00:28.389Z,90.60
2017-09-04T04:02:56.629Z,90.70
2017-09-04T04:05:24.631Z,90.80
2017-09-04T04:07:52.296Z,90.70
2017-09-04T04:10:20.990Z,90.80
2017-09-04T04:12:48.647Z,90.80
2017-09-04T04:15:16.828Z,90.70
2017-09-04T04:17:44.292Z,90.50
2017-09-04T04:20:12.631Z,90.70
2017-09-04T04:22:40.998Z,90.70
2017-09-04T04:25:09.002Z,90.70
2017-09-04T04:27:37.341Z,90.70
2017-09-04T04:30:05.007Z,91.00
2017-09-04T04:32:34.344Z,91.10
2017-09-04T04:35:03.534Z,91.10
2017-09-04T04:37:31.875Z,91.10
2017-09-04T04:40:00.225Z,91.20
2017-09-04T04:42:29.343Z,91.20
2017-09-04T04:44:58.465Z,91.30
2017-09-04T04:47:26.808Z,91.30
2017-09-04T04:49:55.149Z,91.20
2017-09-04T04:52:23.525Z,91.10
2017-09-04T04:54:52.133Z,90.90
2017-09-04T04:57:20.473Z,90.80
2017-09-04T04:59:48.853Z,90.80
2017-09-04T05:02:17.207Z,90.80
2017-09-04T05:04:45.544Z,90.80
2017-09-04T05:07:13.910Z,90.70
2017-09-04T05:09:42.248Z,91.10
2017-09-04T05:12:10.594Z,91.00
2017-09-04T05:14:38.946Z,90.80
2017-09-04T05:17:07.290Z,90.90
2017-09-04T05:19:35.637Z,90.90
2017-09-04T05:22:04.002Z,90.90
2017-09-04T05:24:32.345Z,90.50
2017-09-04T05:27:00.698Z,90.40
2017-09-04T05:29:29.102Z,90.30
2017-09-04T05:31:57.256Z,90.10
2017-09-04T05:34:25.609Z,90.30
2017-09-04T05:36:53.973Z,90.30
2017-09-04T05:39:22.314Z,90.30
2017-09-04T05:41:50.653Z,90.30
2017-09-04T05:44:19.021Z,90.10
2017-09-04T05:46:47.361Z,90.10
2017-09-04T05:49:15.700Z,90.30
2017-09-04T05:51:44.057Z,90.10
2017-09-04T05:54:12.401Z,90.10
2017-09-04T05:56:40.768Z,89.90
2017-09-04T05:59:09.128Z,90.00
2017-09-04T06:01:37.291Z,90.20
2017-09-04T06:04:05.444Z,89.90
2017-09-04T06:06:34.577Z,89.50
2017-09-04T06:09:02.921Z,89.50
2017-09-04T06:11:31.266Z,89.60
2017-09-04T06:13:59.619Z,88.90
2017-09-04T06:16:27.776Z,87.70
2017-09-04T06:18:56.121Z,86.80
2017-09-04T06:21:24.475Z,86.20
2017-09-04T06:23:52.827Z,85.00
2017-09-04T06:26:21.167Z,84.70
2017-09-04T06:28:50.293Z,82.70
2017-09-04T06:31:18.637Z,82.70
2017-09-04T06:33:46.985Z,80.20
2017-09-04T06:36:15.349Z,77.30
2017-09-04T06:38:43.688Z,74.50
2017-09-04T06:41:12.032Z,73.70
2017-09-04T06:43:40.398Z,72.70
2017-09-04T06:46:08.736Z,70.50
2017-09-04T06:48:37.080Z,69.60
2017-09-04T06:51:06.219Z,67.40
2017-09-04T06:53:34.556Z,67.20
2017-09-04T06:56:03.664Z,66.40
2017-09-04T06:58:32.068Z,66.80
2017-09-04T07:01:00.416Z,65.10
2017-09-04T07:03:28.755Z,63.90
2017-09-04T07:05:57.117Z,62.80
2017-09-04T07:08:25.465Z,63.50
2017-09-04T07:10:53.809Z,62.30
2017-09-04T07:13:22.173Z,60.50
2017-09-04T07:15:50.527Z,60.30
2017-09-04T07:18:18.865Z,61.10
2017-09-04T07:20:47.240Z,59.50
2017-09-04T07:23:15.596Z,58.70
2017-09-04T07:25:43.945Z,60.90
2017-09-04T07:28:12.306Z,58.60
2017-09-04T07:30:40.644Z,58.60
2017-09-04T07:33:09.078Z,57.80
2017-09-04T07:35:37.424Z,58.00
2017-09-04T07:38:05.778Z,54.80
2017-09-04T07:40:34.121Z,54.80
2017-09-04T07:43:02.734Z,55.30
2017-09-04T07:45:31.079Z,55.60
2017-09-04T07:47:59.427Z,53.80
2017-09-04T07:50:27.784Z,57.70
2017-09-04T07:52:56.140Z,53.40
2017-09-04T07:55:24.485Z,51.60
2017-09-04T07:57:52.841Z,53.10
2017-09-04T08:00:21.193Z,50.00
2017-09-04T08:02:49.545Z,50.00
2017-09-04T08:05:17.912Z,50.10
2017-09-04T08:07:46.083Z,47.90
2017-09-04T08:10:14.432Z,49.70
2017-09-04T08:12:42.797Z,50.80
2017-09-04T08:15:11.140Z,49.40
2017-09-04T08:17:39.487Z,48.30
2017-09-04T08:20:07.850Z,46.00
2017-09-04T08:22:36.201Z,49.60
2017-09-04T08:25:04.811Z,45.20
2017-09-04T08:27:33.426Z,45.00
2017-09-04T08:30:01.772Z,44.80
2017-09-04T08:32:30.116Z,45.30
2017-09-04T08:34:58.489Z,42.80
2017-09-04T08:37:26.831Z,47.70
2017-09-04T08:39:55.177Z,45.40
2017-09-04T08:42:23.537Z,41.90
2017-09-04T08:44:51.889Z,42.60
2017-09-04T08:47:20.233Z,43.90
2017-09-04T08:49:49.363Z,42.10
2017-09-04T08:52:17.709Z,42.00
2017-09-04T08:54:46.053Z,41.40
2017-09-04T08:57:14.413Z,39.00
2017-09-04T08:59:42.759Z,39.70
2017-09-04T09:02:10.769Z,40.30
2017-09-04T09:04:38.941Z,38.90
2017-09-04T09:07:07.288Z,40.70
2017-09-04T09:09:35.644Z,41.10
2017-09-04T09:12:04.028Z,41.20
2017-09-04T09:14:32.376Z,43.20
2017-09-04T09:17:00.727Z,45.00
2017-09-04T09:19:29.098Z,43.20
2017-09-04T09:21:57.250Z,43.00
2017-09-04T09:24:25.446Z,41.60
2017-09-04T09:26:53.642Z,41.70
2017-09-04T09:29:21.814Z,41.80
2017-09-04T09:31:49.965Z,40.90
2017-09-04T09:34:18.332Z,39.30
2017-09-04T09:36:46.681Z,36.60
2017-09-04T09:39:15.025Z,40.20
2017-09-04T09:41:43.393Z,39.00
2017-09-04T09:44:11.733Z,38.00
2017-09-04T09:46:40.079Z,39.90
2017-09-04T09:49:08.447Z,37.40
2017-09-04T09:51:36.606Z,37.60
2017-09-04T09:54:04.757Z,38.50
2017-09-04T09:56:32.936Z,37.70
2017-09-04T09:59:01.094Z,38.70
2017-09-04T10:01:29.252Z,38.30
2017-09-04T10:03:58.462Z,38.20
2017-09-04T10:06:26.630Z,37.20
2017-09-04T10:08:54.806Z,37.30
2017-09-04T10:11:22.976Z,33.30
2017-09-04T10:13:51.155Z,37.10
2017-09-04T10:16:19.325Z,32.50
2017-09-04T10:18:48.280Z,31.10
2017-09-04T10:21:16.443Z,31.00
2017-09-04T10:23:44.602Z,29.70
2017-09-04T10:26:12.775Z,30.30
2017-09-04T10:28:40.945Z,28.90
2017-09-04T10:31:09.361Z,34.80
2017-09-04T10:33:37.529Z,32.50
2017-09-04T10:36:05.697Z,30.60
2017-09-04T10:38:33.856Z,33.70
2017-09-04T10:41:02.039Z,29.40
2017-09-04T10:43:30.192Z,33.90
2017-09-04T10:45:58.348Z,31.20
2017-09-04T10:48:26.532Z,27.50
2017-09-04T10:50:54.684Z,31.20
2017-09-04T10:53:22.844Z,31.50
2017-09-04T10:55:51.232Z,29.90
2017-09-04T10:58:19.438Z,29.70
2017-09-04T11:00:48.570Z,26.70
2017-09-04T11:03:16.936Z,26.70
2017-09-04T11:05:45.294Z,28.20
2017-09-04T11:08:13.642Z,28.50
2017-09-04T11:10:41.823Z,31.50
2017-09-04T11:13:09.985Z,34.60
2017-09-04T11:15:38.139Z,33.50
2017-09-04T11:18:06.321Z,34.40
2017-09-04T11:20:34.507Z,36.10
2017-09-04T11:23:02.661Z,31.40
2017-09-04T11:25:30.840Z,30.40
2017-09-04T11:27:59.002Z,33.50
2017-09-04T11:30:27.162Z,35.60
2017-09-04T11:32:55.342Z,36.70
2017-09-04T11:35:23.505Z,35.40
2017-09-04T11:37:51.666Z,33.10
2017-09-04T11:40:20.020Z,31.40
2017-09-04T11:42:48.186Z,31.10
2017-09-04T11:45:16.546Z,32.40
2017-09-04T11:47:44.901Z,32.90
2017-09-04T11:50:13.249Z,29.40
2017-09-04T11:52:41.402Z,29.00
2017-09-04T11:55:09.764Z,30.60
2017-09-04T11:57:38.105Z,33.50
2017-09-04T12:00:06.459Z,35.40
2017-09-04T12:02:35.579Z,37.90
2017-09-04T12:05:04.513Z,39.30
2017-09-04T12:07:32.685Z,39.70
2017-09-04T12:10:00.859Z,41.30
2017-09-04T12:12:29.465Z,40.60
2017-09-04T12:14:57.625Z,37.00
2017-09-04T12:17:26.005Z,40.70
2017-09-04T12:19:54.746Z,40.30
2017-09-04T12:22:23.154Z,37.20
2017-09-04T12:24:51.567Z,36.00
2017-09-04T12:27:19.916Z,35.00
2017-09-04T12:32:50.765Z,37.60
2017-09-04T12:35:19.120Z,39.40
2017-09-04T12:37:47.282Z,42.30
2017-09-04T12:40:15.476Z,38.60
2017-09-04T12:42:43.828Z,35.60
2017-09-04T12:45:12.180Z,30.70
2017-09-04T12:47:40.554Z,30.50
2017-09-04T12:50:08.890Z,29.60
2017-09-04T12:52:37.246Z,27.00
2017-09-04T12:55:05.609Z,26.50
2017-09-04T12:57:34.768Z,27.20
2017-09-04T13:03:06.386Z,29.30
2017-09-04T13:05:34.589Z,31.00
2017-09-04T13:08:02.756Z,29.00
2017-09-04T13:10:36.534Z,30.70
2017-09-04T13:16:15.061Z,30.90
2017-09-04T13:18:48.821Z,31.70
2017-09-04T13:24:28.516Z,35.90
2017-09-04T13:27:02.301Z,38.40
2017-09-04T13:32:42.013Z,35.00
2017-09-04T13:35:16.826Z,30.40
2017-09-04T13:37:50.740Z,30.70
2017-09-04T13:43:42.620Z,28.60
2017-09-04T13:49:23.328Z,30.90
2017-09-04T13:51:54.441Z,32.20
2017-09-04T13:54:28.442Z,29.20
2017-09-04T14:00:06.367Z,25.30
2017-09-04T14:02:40.200Z,26.70
2017-09-04T14:05:29.121Z,23.80
2017-09-04T14:08:03.736Z,22.40
2017-09-04T14:13:55.551Z,23.60
2017-09-04T14:16:29.445Z,22.60
2017-09-04T14:18:57.803Z,22.50
2017-09-04T14:21:25.972Z,25.10
2017-09-04T14:23:54.398Z,28.60
2017-09-04T14:26:22.586Z,30.00
2017-09-04T14:28:50.754Z,32.30
2017-09-04T14:31:18.928Z,28.20
2017-09-04T14:33:47.084Z,28.90
2017-09-04T14:36:15.255Z,28.10
2017-09-04T14:38:43.423Z,24.90
2017-09-04T14:41:26.470Z,24.40
2017-09-04T14:47:11.440Z,27.40
2017-09-04T14:49:39.614Z,25.80
2017-09-04T14:52:07.790Z,25.70
2017-09-04T14:54:35.952Z,24.60
2017-09-04T14:57:04.142Z,24.60
2017-09-04T14:59:32.305Z,25.20
2017-09-04T15:02:00.466Z,25.20
2017-09-04T15:04:28.829Z,25.10
2017-09-04T15:06:57.005Z,24.70
2017-09-04T15:09:25.421Z,23.80
2017-09-04T15:11:53.597Z,26.80
2017-09-04T15:14:21.838Z,29.30
2017-09-04T15:16:50.003Z,28.50
2017-09-04T15:19:18.173Z,29.70
2017-09-04T15:21:46.333Z,32.00
2017-09-04T15:24:15.265Z,33.20
2017-09-04T15:26:43.453Z,33.20
2017-09-04T15:29:11.612Z,31.80
2017-09-04T15:31:39.796Z,29.10
2017-09-04T15:34:07.998Z,30.30
2017-09-04T15:36:35.800Z,35.40
2017-09-04T15:39:03.270Z,33.90
2017-09-04T15:41:31.445Z,36.50
2017-09-04T15:43:59.602Z,37.50
2017-09-04T15:46:28.524Z,38.50
2017-09-04T15:48:56.705Z,38.50
2017-09-04T15:51:24.878Z,39.90
2017-09-04T15:53:53.045Z,39.40
2017-09-04T15:56:21.232Z,41.70
2017-09-04T15:58:49.398Z,40.80
2017-09-04T16:01:17.561Z,43.30
2017-09-04T16:03:45.751Z,41.10
2017-09-04T16:09:19.510Z,43.00
2017-09-04T16:11:50.138Z,42.80
2017-09-04T16:14:22.940Z,44.00
2017-09-04T16:20:17.253Z,45.40
2017-09-04T16:22:56.273Z,45.40
2017-09-04T16:25:26.268Z,46.20
2017-09-04T16:28:00.157Z,48.10
2017-09-04T16:30:32.790Z,48.30
2017-09-04T16:33:02.754Z,49.20
2017-09-04T16:35:36.385Z,42.70
2017-09-04T16:38:08.013Z,44.50
2017-09-04T16:40:36.443Z,47.40
2017-09-04T16:43:15.296Z,47.40
2017-09-04T16:45:48.038Z,48.90
2017-09-04T16:48:31.095Z,46.80
2017-09-04T16:51:10.057Z,45.60
2017-09-04T16:56:47.377Z,43.70
2017-09-04T16:59:15.554Z,47.60
2017-09-04T17:01:43.712Z,46.90
2017-09-04T17:04:11.880Z,49.10
2017-09-04T17:06:40.060Z,51.20
2017-09-04T17:09:08.797Z,51.10
2017-09-04T17:11:37.527Z,52.00
2017-09-04T17:14:05.698Z,51.10
2017-09-04T17:16:34.325Z,52.20
2017-09-04T17:19:16.398Z,53.20
2017-09-04T17:21:49.172Z,55.90
2017-09-04T17:24:18.272Z,53.50
2017-09-04T17:26:46.449Z,55.70
2017-09-04T17:29:14.598Z,58.30
2017-09-04T17:31:42.770Z,57.70
2017-09-04T17:34:10.925Z,58.50
2017-09-04T17:36:39.113Z,58.00
2017-09-04T17:39:08.057Z,55.20
2017-09-04T17:41:36.221Z,55.10
2017-09-04T17:44:05.971Z,57.10
2017-09-04T17:46:47.670Z,57.10
2017-09-04T17:49:15.835Z,59.00
2017-09-04T17:51:47.649Z,59.10
2017-09-04T17:54:15.830Z,62.90
2017-09-04T17:56:43.995Z,60.20
2017-09-04T18:02:29.424Z,61.90
2017-09-04T18:07:53.752Z,63.00
2017-09-04T18:10:22.117Z,60.50
2017-09-04T18:12:50.472Z,64.10
2017-09-04T18:15:18.829Z,62.50
2017-09-04T18:17:47.025Z,63.00
2017-09-04T18:20:15.185Z,63.10
2017-09-04T18:22:43.355Z,65.10
2017-09-04T18:31:29.353Z,64.40
2017-09-04T18:36:50.789Z,65.60
2017-09-04T18:39:18.954Z,66.70
2017-09-04T18:41:47.127Z,66.10
2017-09-04T18:44:15.748Z,66.10
2017-09-04T18:46:43.912Z,67.50
2017-09-04T18:49:12.068Z,65.50
2017-09-04T18:51:40.257Z,65.80
2017-09-04T18:54:08.425Z,66.40
2017-09-04T18:56:36.593Z,68.30
2017-09-04T18:59:04.783Z,67.10
2017-09-04T19:01:32.952Z,66.90
2017-09-04T19:04:02.065Z,69.60
2017-09-04T19:06:30.435Z,69.40
2017-09-04T19:08:58.597Z,69.40
2017-09-04T19:11:26.952Z,69.60
2017-09-04T19:13:55.142Z,71.00
2017-09-04T19:16:23.329Z,69.80
2017-09-04T19:18:51.926Z,70.10
2017-09-04T19:21:20.293Z,71.10
2017-09-04T19:23:49.216Z,70.90
2017-09-04T19:26:17.492Z,71.70
2017-09-04T19:28:45.660Z,70.70
2017-09-04T19:31:13.818Z,70.60
2017-09-04T19:33:41.984Z,71.10
2017-09-04T19:36:10.158Z,71.90
2017-09-04T19:38:39.093Z,71.70
2017-09-04T19:41:07.445Z,71.70
2017-09-04T19:43:35.641Z,71.90
2017-09-04T19:46:03.801Z,73.00
2017-09-04T19:48:32.160Z,72.10
2017-09-04T19:51:01.293Z,72.20
2017-09-04T19:53:29.467Z,72.10
2017-09-04T19:55:57.620Z,72.30
2017-09-04T19:58:25.806Z,72.70
2017-09-04T20:03:56.413Z,73.70
2017-09-04T20:06:24.577Z,73.10
2017-09-04T20:08:52.753Z,72.90
2017-09-04T20:11:20.929Z,73.40
2017-09-04T20:13:49.108Z,73.20
2017-09-04T20:16:17.273Z,74.00
2017-09-04T20:18:45.441Z,75.20
2017-09-04T20:21:13.602Z,75.10
2017-09-04T20:23:42.528Z,76.70
2017-09-04T20:26:10.711Z,75.90
2017-09-04T20:28:39.069Z,75.90
2017-09-04T20:31:07.418Z,76.60
2017-09-04T20:33:36.362Z,76.60
2017-09-04T20:36:04.713Z,76.50
2017-09-04T20:38:32.878Z,76.80
2017-09-04T20:41:01.058Z,76.60
2017-09-04T20:43:29.222Z,76.00
2017-09-04T20:45:57.579Z,76.90
2017-09-04T20:48:25.947Z,75.70
2017-09-04T20:50:54.114Z,76.80
2017-09-04T20:53:22.721Z,76.70
2017-09-04T20:55:51.085Z,76.50
2017-09-04T20:58:19.245Z,76.90
2017-09-04T21:00:47.602Z,76.60
2017-09-04T21:03:15.965Z,76.60
2017-09-04T21:05:44.116Z,77.50
2017-09-04T21:08:13.142Z,77.20
2017-09-04T21:10:41.319Z,77.20
2017-09-04T21:13:09.480Z,77.60
2017-09-04T21:15:37.640Z,76.90
2017-09-04T21:18:05.842Z,77.30
2017-09-04T21:20:33.994Z,77.50
2017-09-04T21:23:02.162Z,78.00
2017-09-04T21:25:30.333Z,78.50
2017-09-04T21:27:58.515Z,78.50
2017-09-04T21:30:26.921Z,79.20
2017-09-04T21:32:55.103Z,79.40
2017-09-04T21:35:23.523Z,80.30
2017-09-04T21:37:51.694Z,79.90
2017-09-04T21:40:19.865Z,80.20
2017-09-04T21:42:48.805Z,80.50
2017-09-04T21:45:16.961Z,80.60
2017-09-04T21:47:45.338Z,80.00
2017-09-04T21:50:13.685Z,80.20
2017-09-04T21:52:42.040Z,80.00
2017-09-04T21:55:10.416Z,80.30
2017-09-04T21:57:38.773Z,80.90
2017-09-04T22:00:06.940Z,81.40
2017-09-04T22:02:35.118Z,80.90
2017-09-04T22:05:03.286Z,81.30
2017-09-04T22:07:31.629Z,81.00
2017-09-04T22:09:59.999Z,80.40
2017-09-04T22:12:28.358Z,81.50
2017-09-04T22:14:56.691Z,81.90
2017-09-04T22:17:24.892Z,81.00
2017-09-04T22:19:53.249Z,80.80
2017-09-04T22:22:21.611Z,80.70
2017-09-04T22:24:49.786Z,79.70
2017-09-04T22:27:17.953Z,79.90
2017-09-04T22:29:46.116Z,77.50
2017-09-04T22:32:14.290Z,76.70
2017-09-04T22:34:42.448Z,78.10
2017-09-04T22:37:10.613Z,78.00
2017-09-04T22:39:38.792Z,77.60
2017-09-04T22:42:07.141Z,77.50
2017-09-04T22:44:36.068Z,78.30
2017-09-04T22:47:04.239Z,78.30
2017-09-04T22:49:32.401Z,78.80
2017-09-04T22:52:00.571Z,79.60
2017-09-04T22:54:28.743Z,79.90
2017-09-04T22:56:56.911Z,79.70
2017-09-04T22:59:25.062Z,80.10
2017-09-04T23:01:53.233Z,80.10
2017-09-04T23:04:21.404Z,80.10
2017-09-04T23:06:49.557Z,80.00
2017-09-04T23:09:17.736Z,80.40
2017-09-04T23:11:45.892Z,80.40
2017-09-04T23:14:14.244Z,80.30
2017-09-04T23:16:42.434Z,80.50
2017-09-04T23:19:10.784Z,80.00
2017-09-04T23:21:39.134Z,79.80
2017-09-04T23:24:07.506Z,80.20
2017-09-04T23:26:35.855Z,80.10
2017-09-04T23:29:04.025Z,80.30
2017-09-04T23:31:32.201Z,79.60
2017-09-04T23:34:00.581Z,79.60
2017-09-04T23:36:28.739Z,80.00
2017-09-04T23:38:57.034Z,79.70
2017-09-04T23:41:25.377Z,79.70
2017-09-04T23:43:53.721Z,80.70
2017-09-04T23:46:21.907Z,79.40
2017-09-04T23:48:50.064Z,79.00
2017-09-04T23:51:18.228Z,79.00
2017-09-04T23:53:46.408Z,79.40
2017-09-04T23:56:14.763Z,79.20
2017-09-04T23:58:42.924Z,79.40
